Time;durP1;ratioP1;P1;durP2;ratioP2;P2;SDS_P1;SDS_P2;PMS_P1;PMS_P2;Temp;Humidity;BMP_temperature;BMP_pressure;BME280_temperature;BME280_humidity;BME280_pressure;Samples;Min_cycle;Max_cycle;Signal;HPM_P1;HPM_P2
2022/11/17 00:03:13;;;;;;;4.57;1.90;;;;;;;19.58;52.22;63261.03;17082115;28;20233;-26
2022/11/17 00:29:38;;;;;;;4.35;1.92;;;;;;;19.50;51.91;63252.59;17090732;28;20221;-25
2022/11/17 00:38:16;;;;;;;4.87;2.00;;;;;;;19.48;52.11;63247.72;17091189;28;20662;-25
2022/11/17 00:46:52;;;;;;;5.93;2.27;;;;;;;19.46;51.76;63243.41;17109923;28;20234;-26
2022/11/17 00:55:28;;;;;;;4.63;2.10;;;;;;;19.44;51.97;63246.41;17104830;28;20236;-25
2022/11/17 01:04:05;;;;;;;5.00;2.07;;;;;;;19.40;51.84;63241.88;17095257;28;20241;-25
2022/11/17 01:12:41;;;;;;;4.70;2.10;;;;;;;19.35;52.14;63235.72;17102205;28;20280;-25
2022/11/17 01:21:20;;;;;;;3.80;1.97;;;;;;;19.33;52.18;63234.56;17093035;28;20458;-25
2022/11/17 01:29:55;;;;;;;4.40;1.97;;;;;;;19.31;52.05;63232.31;17084301;28;20233;-25
2022/11/17 01:38:33;;;;;;;4.23;2.10;;;;;;;19.28;51.96;63228.94;17105173;28;20250;-26
2022/11/17 01:47:16;;;;;;;5.53;1.93;;;;;;;19.28;51.80;63225.75;17097267;28;20593;-26
2022/11/17 01:55:57;;;;;;;4.37;2.00;;;;;;;19.26;52.02;63231.38;17087321;28;20282;-25
2022/11/17 02:04:36;;;;;;;8.27;2.17;;;;;;;19.24;51.83;63223.88;17109712;28;20241;-26
2022/11/17 02:13:13;;;;;;;5.17;2.03;;;;;;;19.22;51.85;63222.19;17105206;28;20667;-26
2022/11/17 02:22:20;;;;;;;4.17;1.87;;;;;;;19.17;51.81;63216.56;17103625;23;22593;-22
2022/11/17 02:31:14;;;;;;;3.80;1.60;;;;;;;19.18;51.89;63219.75;17089155;28;20253;-27
2022/11/17 02:39:58;;;;;;;3.60;1.50;;;;;;;19.16;52.09;63214.84;17099784;28;20284;-23
2022/11/17 02:48:38;;;;;;;5.10;1.93;;;;;;;19.14;51.99;63215.22;17095257;28;20229;-22
2022/11/17 02:57:30;;;;;;;4.30;1.80;;;;;;;19.12;51.84;63207.75;17096481;28;20229;-24
2022/11/17 03:06:16;;;;;;;4.77;1.90;;;;;;;19.06;52.02;63204.72;17090540;28;20205;-25
2022/11/17 03:14:57;;;;;;;3.80;1.90;;;;;;;19.06;51.74;63206.78;17089995;28;20310;-24
2022/11/17 03:23:41;;;;;;;3.75;1.85;;;;;;;19.03;51.67;63200.78;17046651;28;20236;-23
2022/11/17 03:32:18;;;;;;;3.50;1.53;;;;;;;19.01;51.68;63196.47;17087043;28;20266;-22
2022/11/17 03:40:57;;;;;;;3.70;1.70;;;;;;;19.00;51.46;63192.19;17091836;28;20273;-22
2022/11/17 03:49:40;;;;;;;3.50;1.63;;;;;;;18.96;51.60;63192.91;17095040;28;20234;-24
2022/11/17 03:58:19;;;;;;;4.17;1.90;;;;;;;18.94;51.74;63191.22;17088563;28;20285;-24
2022/11/17 04:06:54;;;;;;;4.40;1.73;;;;;;;18.94;51.68;63191.22;17085495;28;20271;-26
2022/11/17 04:24:26;;;;;;;3.90;1.70;;;;;;;18.88;51.64;63184.47;17073912;28;20261;-23
2022/11/17 04:33:03;;;;;;;4.43;1.80;;;;;;;19.04;51.35;63201.91;17101748;28;20292;-23
2022/11/17 04:41:56;;;;;;;4.47;1.77;;;;;;;19.21;50.72;63220.50;17097533;28;20264;-23
2022/11/17 04:50:33;;;;;;;3.50;1.57;;;;;;;19.32;50.82;63236.06;17106866;28;20607;-23
2022/11/17 04:59:09;;;;;;;3.37;1.40;;;;;;;19.36;50.99;63237.38;17101831;28;20664;-23
2022/11/17 05:07:46;;;;;;;3.50;1.53;;;;;;;19.42;50.77;63238.91;17101508;28;20277;-23
2022/11/17 05:25:17;;;;;;;3.70;1.50;;;;;;;19.52;51.02;63254.84;17044370;28;20209;-23
2022/11/17 05:33:52;;;;;;;3.33;1.50;;;;;;;19.54;50.98;63257.66;17103774;28;20318;-22
2022/11/17 05:42:29;;;;;;;3.30;1.50;;;;;;;19.60;51.21;63260.69;17104053;28;20233;-23
2022/11/17 05:51:05;;;;;;;3.60;1.87;;;;;;;19.61;51.24;63265.00;17094303;28;20226;-23
2022/11/17 05:59:45;;;;;;;3.07;1.40;;;;;;;19.68;51.21;63269.72;17103860;28;20233;-23
2022/11/17 06:08:21;;;;;;;4.27;2.03;;;;;;;19.68;51.03;63272.91;17098512;28;20592;-23
2022/11/17 06:17:03;;;;;;;3.97;1.50;;;;;;;19.67;51.02;63273.81;17096312;28;20229;-23
2022/11/17 06:25:39;;;;;;;3.90;1.87;;;;;;;19.66;51.47;63270.06;17060163;28;20589;-24
2022/11/17 06:34:16;;;;;;;4.33;2.30;;;;;;;14.33;50.81;62687.59;17089423;28;20269;-23
2022/11/17 06:43:07;;;;;;;7.00;2.13;;;;;;;18.28;47.35;63115.41;17090097;28;20222;-23
2022/11/17 06:51:43;;;;;;;8.67;2.23;;;;;;;18.67;48.13;63160.81;17096798;28;20232;-23
2022/11/17 07:00:19;;;;;;;16.23;2.80;;;;;;;18.75;48.68;63169.81;17095403;28;20276;-23
2022/11/17 07:08:56;;;;;;;10.23;3.97;;;;;;;18.86;49.81;63182.75;17094237;28;20589;-23
2022/11/17 07:17:32;;;;;;;8.98;3.97;;;;;;;18.92;50.04;63191.03;17085996;28;20229;-23
2022/11/17 07:26:08;;;;;;;13.17;5.43;;;;;;;18.92;50.00;63186.34;17090282;28;20209;-22
2022/11/17 07:34:44;;;;;;;14.27;5.57;;;;;;;18.99;50.38;63196.28;17094019;28;20237;-22
2022/11/17 07:43:20;;;;;;;14.33;6.40;;;;;;;18.99;50.78;63194.22;17094400;28;20722;-25
2022/11/17 07:51:56;;;;;;;19.07;7.00;;;;;;;19.04;50.88;63202.47;17085255;28;20225;-22
2022/11/17 08:00:33;;;;;;;16.30;7.97;;;;;;;19.09;52.21;63208.09;17069479;28;20326;-23
2022/11/17 08:09:09;;;;;;;19.53;8.10;;;;;;;19.03;52.10;63203.41;17077355;28;20715;-24
2022/11/17 08:17:50;;;;;;;20.03;6.40;;;;;;;19.08;52.03;63207.00;17098063;28;20233;-29
2022/11/17 08:26:26;;;;;;;20.83;7.03;;;;;;;19.36;51.82;63239.44;17085140;28;20261;-22
2022/11/17 08:35:05;;;;;;;16.60;6.83;;;;;;;19.52;51.01;63255.41;17090907;28;20265;-22
2022/11/17 08:43:41;;;;;;;18.03;6.50;;;;;;;19.64;50.82;63265.16;17088869;28;20279;-25
2022/11/17 08:52:18;;;;;;;15.53;6.57;;;;;;;19.67;50.72;63268.56;17094151;28;20651;-25
2022/11/17 09:00:53;;;;;;;15.20;5.97;;;;;;;19.74;50.66;63273.84;17094611;28;20236;-22
2022/11/17 09:09:31;;;;;;;27.37;7.53;;;;;;;19.75;50.66;63280.22;17099466;28;20764;-24
2022/11/17 09:18:06;;;;;;;17.83;5.83;;;;;;;19.72;50.87;63279.47;17101492;28;20243;-22
2022/11/17 09:26:43;;;;;;;13.63;6.03;;;;;;;19.59;50.80;63256.94;17101293;28;20271;-22
2022/11/17 09:35:19;;;;;;;20.70;7.15;;;;;;;19.25;51.68;63227.63;17090191;28;20732;-22
2022/11/17 09:44:03;;;;;;;23.30;6.73;;;;;;;19.28;51.95;63228.38;17108462;28;20306;-22
2022/11/17 09:52:50;;;;;;;18.43;7.20;;;;;;;19.37;51.79;63243.75;17088921;28;20248;-22
2022/11/17 10:01:29;;;;;;;16.97;7.30;;;;;;;19.43;52.08;63244.69;17099901;28;20229;-22
2022/11/17 10:10:12;;;;;;;13.70;5.50;;;;;;;19.49;51.91;63249.41;17093686;28;20284;-22
2022/11/17 10:18:48;;;;;;;14.40;5.73;;;;;;;19.49;52.17;63257.28;17096194;28;20711;-24
2022/11/17 10:27:26;;;;;;;13.30;5.40;;;;;;;19.49;52.20;63252.03;17080926;28;20280;-22
2022/11/17 10:36:05;;;;;;;15.57;5.70;;;;;;;19.53;52.37;63255.97;17089706;28;20234;-22
2022/11/17 10:44:43;;;;;;;17.30;6.27;;;;;;;19.48;52.52;63245.66;17093037;28;20233;-24
2022/11/17 10:53:29;;;;;;;11.97;5.30;;;;;;;19.51;52.45;63254.28;17085012;28;20327;-23
2022/11/17 11:02:27;;;;;;;11.20;5.20;;;;;;;19.52;52.19;63254.84;17092485;28;20246;-23
2022/11/17 11:11:11;;;;;;;20.43;6.77;;;;;;;19.54;52.59;63257.66;17091428;28;20237;-24
2022/11/17 11:19:51;;;;;;;44.80;8.93;;;;;;;19.64;58.18;63262.56;17095071;28;20269;-23
2022/11/17 11:28:45;;;;;;;25.77;7.70;;;;;;;19.53;56.82;63256.53;17085537;28;20338;-23
2022/11/17 11:37:29;;;;;;;23.40;7.53;;;;;;;19.45;55.46;63247.53;17084476;28;20676;-22
2022/11/17 11:46:12;;;;;;;9.70;4.00;;;;;;;18.33;50.48;63126.28;17079984;28;20213;-24
2022/11/17 11:54:53;;;;;;;6.13;1.97;;;;;;;16.07;52.34;62872.59;17081112;28;20321;-22
2022/11/17 12:03:35;;;;;;;3.92;1.90;;;;;;;15.75;51.82;62839.84;17077408;28;20233;-22
2022/11/17 12:12:16;;;;;;;3.70;1.80;;;;;;;16.27;51.04;62895.06;17089441;28;20268;-22
2022/11/17 12:21:02;;;;;;;4.13;1.60;;;;;;;16.25;50.85;62898.03;17090698;28;20241;-22
2022/11/17 12:29:46;;;;;;;5.20;1.93;;;;;;;16.77;48.96;62950.13;17083073;28;20225;-22
2022/11/17 12:38:44;;;;;;;3.67;1.60;;;;;;;18.19;46.68;63109.03;17102077;28;20580;-22
2022/11/17 12:47:21;;;;;;;5.70;1.63;;;;;;;18.52;46.47;63147.66;17114436;28;20237;-22
2022/11/17 12:56:18;;;;;;;4.20;1.52;;;;;;;18.62;46.77;63156.28;17120060;28;20247;-21
2022/11/17 13:04:57;;;;;;;3.77;1.70;;;;;;;18.65;46.81;63162.28;17119264;28;20238;-21
2022/11/17 13:13:34;;;;;;;3.80;1.50;;;;;;;18.69;47.08;63157.81;17115986;28;20232;-22
2022/11/17 13:22:15;;;;;;;3.77;1.40;;;;;;;18.64;47.30;63155.38;17116444;28;20246;-22
2022/11/17 13:30:52;;;;;;;3.80;1.70;;;;;;;18.70;47.40;63161.56;17117737;28;20221;-22
2022/11/17 13:39:28;;;;;;;3.73;1.50;;;;;;;18.71;47.38;63170.53;17106851;28;20237;-22
2022/11/17 13:48:05;;;;;;;4.70;1.70;;;;;;;18.70;47.97;63164.19;17115655;28;20314;-22
2022/11/17 13:56:41;;;;;;;4.90;1.47;;;;;;;18.69;47.88;63163.59;17115448;28;20226;-21
2022/11/17 14:05:24;;;;;;;3.00;1.20;;;;;;;18.69;47.75;63163.03;17114623;28;20269;-22
2022/11/17 14:14:00;;;;;;;3.70;1.40;;;;;;;18.68;48.15;63162.50;17112514;28;20706;-21
2022/11/17 14:22:37;;;;;;;4.90;1.50;;;;;;;18.68;48.19;63162.50;17108275;28;20245;-22
2022/11/17 14:31:13;;;;;;;3.30;1.43;;;;;;;18.67;48.10;63166.03;17113564;28;20253;-21
2022/11/17 14:39:49;;;;;;;3.73;1.53;;;;;;;18.71;48.01;63163.25;17105602;28;20276;-23
2022/11/17 14:48:25;;;;;;;3.10;1.30;;;;;;;18.81;48.07;63174.53;17112059;28;20261;-21
2022/11/17 14:57:02;;;;;;;3.60;1.40;;;;;;;18.86;48.17;63184.81;17110881;28;20720;-21
2022/11/17 15:05:44;;;;;;;3.50;1.20;;;;;;;18.92;48.22;63186.34;17109824;28;20234;-21
2022/11/17 15:14:20;;;;;;;3.57;1.30;;;;;;;18.97;48.17;63194.59;17091489;28;20230;-22
2022/11/17 15:22:56;;;;;;;3.33;1.30;;;;;;;19.01;48.29;63203.78;17109821;28;20234;-22
2022/11/17 15:31:32;;;;;;;3.10;1.37;;;;;;;19.06;48.34;63202.09;17110055;28;20336;-22
2022/11/17 15:40:09;;;;;;;3.30;1.20;;;;;;;19.09;48.61;63208.09;17109081;28;20762;-22
2022/11/17 15:48:48;;;;;;;3.20;1.33;;;;;;;19.13;48.67;63206.25;17109053;28;20245;-23
2022/11/17 15:57:23;;;;;;;4.00;1.40;;;;;;;19.16;48.62;63215.41;17101186;28;20229;-21
2022/11/17 16:06:00;;;;;;;3.40;1.43;;;;;;;19.18;48.61;63217.69;17106598;28;20209;-23
2022/11/17 16:14:35;;;;;;;4.97;1.23;;;;;;;19.21;48.95;63226.28;17119223;28;20470;-22
2022/11/17 16:23:12;;;;;;;3.30;1.20;;;;;;;19.22;49.13;63226.84;17122865;28;20291;-21
2022/11/17 16:31:47;;;;;;;5.77;1.60;;;;;;;19.29;49.05;63224.28;17122074;28;20233;-21
2022/11/17 16:40:24;;;;;;;3.30;1.40;;;;;;;19.30;49.18;63230.63;17121097;28;20249;-23
2022/11/17 16:49:02;;;;;;;3.72;1.70;;;;;;;19.34;49.17;63235.13;17121038;28;20422;-23
2022/11/17 16:57:39;;;;;;;3.25;1.30;;;;;;;19.41;49.26;63245.66;17115517;28;20243;-22
2022/11/17 17:06:17;;;;;;;3.30;1.40;;;;;;;19.44;49.25;63245.84;17120078;28;20264;-21
2022/11/17 17:14:53;;;;;;;3.30;1.30;;;;;;;19.47;49.45;63247.16;17119209;28;20234;-22
2022/11/17 17:23:29;;;;;;;4.23;1.63;;;;;;;19.46;49.45;63248.66;17110702;28;20284;-27
2022/11/17 17:32:06;;;;;;;3.27;1.30;;;;;;;19.45;49.65;63244.91;17116389;28;20322;-22
2022/11/17 17:40:42;;;;;;;3.50;1.20;;;;;;;19.47;49.53;63252.41;17115287;28;20300;-22
2022/11/17 17:49:18;;;;;;;3.27;1.37;;;;;;;19.54;49.65;63257.66;17116783;28;20270;-22
2022/11/17 17:57:54;;;;;;;3.40;1.40;;;;;;;19.60;49.57;63263.28;17105901;28;20237;-21
2022/11/17 18:06:34;;;;;;;3.30;1.50;;;;;;;19.61;49.57;63264.41;17108646;28;20693;-21
2022/11/17 18:15:11;;;;;;;3.23;1.20;;;;;;;19.58;49.76;63253.16;17115518;28;20273;-22
2022/11/17 18:23:47;;;;;;;4.60;1.60;;;;;;;19.55;49.86;63256.19;17109970;28;20275;-21
2022/11/17 18:32:23;;;;;;;3.50;1.50;;;;;;;19.52;50.02;63257.47;17113036;28;20608;-22
2022/11/17 18:41:04;;;;;;;4.20;1.57;;;;;;;19.50;49.89;63252.59;17110684;28;20260;-21
2022/11/17 18:49:40;;;;;;;3.93;1.70;;;;;;;19.50;50.03;63252.59;17107332;28;20309;-22
2022/11/17 18:58:17;;;;;;;4.00;1.77;;;;;;;19.57;49.87;63260.47;17111575;28;20233;-21
2022/11/17 19:06:52;;;;;;;5.83;1.90;;;;;;;19.62;49.81;63260.88;17111461;28;20810;-22
2022/11/17 19:15:29;;;;;;;4.37;1.77;;;;;;;19.64;49.92;63265.16;17184578;23;20736;-27
2022/11/17 19:24:05;;;;;;;4.20;1.97;;;;;;;19.62;49.91;63263.50;17185584;28;20349;-27
2022/11/17 19:32:42;;;;;;;4.63;1.97;;;;;;;19.61;49.91;63261.78;17134872;28;20253;-27
2022/11/17 19:41:19;;;;;;;3.60;1.50;;;;;;;19.57;49.83;63259.91;17161078;28;20271;-27
2022/11/17 19:49:56;;;;;;;5.83;1.90;;;;;;;19.54;50.08;63257.66;17176902;28;20222;-26
2022/11/17 19:58:32;;;;;;;4.00;2.00;;;;;;;19.51;50.00;63256.91;17130886;28;20241;-26
2022/11/17 20:07:11;;;;;;;4.67;2.40;;;;;;;19.50;49.88;63253.16;17133434;28;20232;-27
2022/11/17 20:15:48;;;;;;;4.50;2.40;;;;;;;19.52;49.95;63254.84;17136674;28;20238;-26
2022/11/17 20:24:24;;;;;;;4.50;2.20;;;;;;;19.54;49.74;63257.66;17136766;28;20288;-27
2022/11/17 20:32:59;;;;;;;4.30;2.00;;;;;;;19.62;49.71;63271.34;17124943;28;20234;-26
2022/11/17 20:41:36;;;;;;;3.60;1.80;;;;;;;19.69;49.33;63268.22;17153386;28;20261;-27
2022/11/17 20:50:12;;;;;;;3.80;1.83;;;;;;;19.71;49.53;63273.66;17124390;28;20249;-25
2022/11/17 20:58:48;;;;;;;4.47;2.23;;;;;;;19.72;49.65;63277.41;17152836;28;20275;-26
2022/11/17 21:07:24;;;;;;;4.33;2.13;;;;;;;19.70;49.85;63277.19;17161208;28;20222;-26
2022/11/17 21:16:06;;;;;;;4.77;2.27;;;;;;;19.66;49.82;63270.06;17145535;28;20280;-25
2022/11/17 21:24:41;;;;;;;5.35;1.80;;;;;;;19.63;49.78;63266.69;17142841;28;20609;-25
2022/11/17 21:33:18;;;;;;;4.50;1.93;;;;;;;19.62;49.70;63262.94;17155444;28;20229;-26
2022/11/17 21:41:53;;;;;;;3.60;1.90;;;;;;;19.59;49.83;63262.19;17173589;28;20282;-26
2022/11/17 21:50:30;;;;;;;4.60;2.57;;;;;;;19.53;49.61;63256.53;17172030;28;20306;-25
2022/11/17 21:59:10;;;;;;;5.23;2.30;;;;;;;19.53;49.74;63251.28;17171102;28;20248;-25
2022/11/17 22:07:47;;;;;;;4.20;2.03;;;;;;;19.51;49.63;63251.66;17147342;28;20436;-26
2022/11/17 22:16:22;;;;;;;3.77;2.00;;;;;;;19.50;49.59;63255.78;17158700;28;20233;-26
2022/11/17 22:24:59;;;;;;;4.07;2.17;;;;;;;19.48;49.53;63248.28;17142297;28;20471;-26
2022/11/17 22:33:34;;;;;;;3.43;1.73;;;;;;;19.47;49.55;63249.22;17154279;28;20326;-25
2022/11/17 22:42:13;;;;;;;3.90;1.73;;;;;;;19.42;49.57;63244.16;17149318;28;20318;-25
2022/11/17 22:50:48;;;;;;;4.60;2.43;;;;;;;19.41;49.58;63243.03;17145065;28;20244;-25
2022/11/17 22:59:25;;;;;;;4.27;2.20;;;;;;;19.38;49.48;63239.09;17161516;28;20238;-26
2022/11/17 23:08:00;;;;;;;4.63;2.00;;;;;;;19.34;49.45;63235.13;17150881;28;20746;-24
2022/11/17 23:16:37;;;;;;;4.10;1.93;;;;;;;19.32;49.68;63232.88;17149856;28;20234;-24
2022/11/17 23:25:12;;;;;;;4.07;1.87;;;;;;;19.28;49.36;63228.94;17136562;28;20229;-25
2022/11/17 23:33:49;;;;;;;4.00;2.10;;;;;;;19.26;49.51;63226.13;17146097;28;20239;-24
2022/11/17 23:42:24;;;;;;;4.27;2.00;;;;;;;19.24;49.57;63224.44;17161462;28;20591;-24
2022/11/17 23:51:05;;;;;;;4.33;2.33;;;;;;;19.22;49.41;63219.00;17138317;28;20209;-25
2022/11/17 23:59:41;;;;;;;4.60;2.40;;;;;;;19.19;49.53;63213.56;17134786;28;20671;-24
